sensor_id;sensor_type;location;lat;lon;timestamp;P1;durP1;ratioP1;P2;durP2;ratioP2
8466;SDS011;4270;48.148;11.648;2024-01-07T00:02:06;18.57;;;10.43;;
8466;SDS011;4270;48.148;11.648;2024-01-07T00:04:31;17.07;;;9.97;;
8466;SDS011;4270;48.148;11.648;2024-01-07T00:06:59;17.97;;;10.37;;
8466;SDS011;4270;48.148;11.648;2024-01-07T00:09:24;15.83;;;9.10;;
8466;SDS011;4270;48.148;11.648;2024-01-07T00:11:49;17.67;;;9.93;;
8466;SDS011;4270;48.148;11.648;2024-01-07T00:14:15;17.40;;;10.40;;
8466;SDS011;4270;48.148;11.648;2024-01-07T00:16:41;15.10;;;8.90;;
8466;SDS011;4270;48.148;11.648;2024-01-07T00:19:07;16.70;;;11.10;;
8466;SDS011;4270;48.148;11.648;2024-01-07T00:21:32;17.07;;;10.63;;
8466;SDS011;4270;48.148;11.648;2024-01-07T00:23:57;15.67;;;9.90;;
8466;SDS011;4270;48.148;11.648;2024-01-07T00:26:22;15.57;;;9.73;;
8466;SDS011;4270;48.148;11.648;2024-01-07T00:28:47;16.73;;;10.43;;
8466;SDS011;4270;48.148;11.648;2024-01-07T00:31:13;18.33;;;9.73;;
8466;SDS011;4270;48.148;11.648;2024-01-07T00:33:38;16.60;;;10.30;;
8466;SDS011;4270;48.148;11.648;2024-01-07T00:36:03;16.57;;;10.20;;
8466;SDS011;4270;48.148;11.648;2024-01-07T00:38:29;16.53;;;10.40;;
8466;SDS011;4270;48.148;11.648;2024-01-07T00:40:54;17.20;;;9.80;;
8466;SDS011;4270;48.148;11.648;2024-01-07T00:43:19;17.50;;;11.33;;
8466;SDS011;4270;48.148;11.648;2024-01-07T00:45:44;15.07;;;9.93;;
8466;SDS011;4270;48.148;11.648;2024-01-07T00:48:09;15.43;;;9.73;;
8466;SDS011;4270;48.148;11.648;2024-01-07T00:50:35;19.60;;;10.90;;
8466;SDS011;4270;48.148;11.648;2024-01-07T00:53:00;17.20;;;9.37;;
8466;SDS011;4270;48.148;11.648;2024-01-07T00:55:25;19.70;;;11.00;;
8466;SDS011;4270;48.148;11.648;2024-01-07T00:57:50;16.10;;;10.70;;
8466;SDS011;4270;48.148;11.648;2024-01-07T01:00:16;16.63;;;10.40;;
8466;SDS011;4270;48.148;11.648;2024-01-07T01:02:41;17.60;;;10.30;;
8466;SDS011;4270;48.148;11.648;2024-01-07T01:05:07;17.53;;;10.47;;
8466;SDS011;4270;48.148;11.648;2024-01-07T01:07:32;16.50;;;10.37;;
8466;SDS011;4270;48.148;11.648;2024-01-07T01:09:57;17.27;;;9.80;;
8466;SDS011;4270;48.148;11.648;2024-01-07T01:12:23;18.20;;;10.70;;
8466;SDS011;4270;48.148;11.648;2024-01-07T01:14:48;16.60;;;10.70;;
8466;SDS011;4270;48.148;11.648;2024-01-07T01:17:13;19.30;;;10.63;;
8466;SDS011;4270;48.148;11.648;2024-01-07T01:19:38;18.63;;;10.03;;
8466;SDS011;4270;48.148;11.648;2024-01-07T01:22:04;15.77;;;9.83;;
8466;SDS011;4270;48.148;11.648;2024-01-07T01:24:29;16.83;;;10.30;;
8466;SDS011;4270;48.148;11.648;2024-01-07T01:26:54;16.80;;;9.80;;
8466;SDS011;4270;48.148;11.648;2024-01-07T01:29:19;15.80;;;10.13;;
8466;SDS011;4270;48.148;11.648;2024-01-07T01:31:44;17.07;;;9.73;;
8466;SDS011;4270;48.148;11.648;2024-01-07T01:34:10;17.37;;;11.10;;
8466;SDS011;4270;48.148;11.648;2024-01-07T01:36:35;15.83;;;10.00;;
8466;SDS011;4270;48.148;11.648;2024-01-07T01:39:00;14.97;;;9.53;;
8466;SDS011;4270;48.148;11.648;2024-01-07T01:41:25;15.20;;;9.70;;
8466;SDS011;4270;48.148;11.648;2024-01-07T01:43:51;15.90;;;9.50;;
8466;SDS011;4270;48.148;11.648;2024-01-07T01:46:16;18.47;;;10.23;;
8466;SDS011;4270;48.148;11.648;2024-01-07T01:48:41;15.67;;;9.63;;
8466;SDS011;4270;48.148;11.648;2024-01-07T01:51:07;15.27;;;9.53;;
8466;SDS011;4270;48.148;11.648;2024-01-07T01:53:33;16.27;;;9.53;;
8466;SDS011;4270;48.148;11.648;2024-01-07T01:55:58;15.00;;;9.60;;
8466;SDS011;4270;48.148;11.648;2024-01-07T01:58:25;17.07;;;9.90;;
8466;SDS011;4270;48.148;11.648;2024-01-07T02:00:51;17.33;;;9.90;;
8466;SDS011;4270;48.148;11.648;2024-01-07T02:03:17;13.97;;;8.50;;
8466;SDS011;4270;48.148;11.648;2024-01-07T02:05:42;16.17;;;9.10;;
8466;SDS011;4270;48.148;11.648;2024-01-07T02:08:07;12.80;;;8.17;;
8466;SDS011;4270;48.148;11.648;2024-01-07T02:10:33;14.73;;;10.43;;
8466;SDS011;4270;48.148;11.648;2024-01-07T02:13:01;14.10;;;8.60;;
8466;SDS011;4270;48.148;11.648;2024-01-07T02:15:26;13.20;;;8.37;;
8466;SDS011;4270;48.148;11.648;2024-01-07T02:17:51;13.20;;;8.43;;
8466;SDS011;4270;48.148;11.648;2024-01-07T02:20:17;14.60;;;8.83;;
8466;SDS011;4270;48.148;11.648;2024-01-07T02:22:42;13.70;;;8.70;;
8466;SDS011;4270;48.148;11.648;2024-01-07T02:25:07;12.67;;;8.53;;
8466;SDS011;4270;48.148;11.648;2024-01-07T02:27:33;13.83;;;8.20;;
8466;SDS011;4270;48.148;11.648;2024-01-07T02:29:58;13.43;;;7.50;;
8466;SDS011;4270;48.148;11.648;2024-01-07T02:32:24;15.33;;;8.83;;
8466;SDS011;4270;48.148;11.648;2024-01-07T02:34:49;13.07;;;8.20;;
8466;SDS011;4270;48.148;11.648;2024-01-07T02:37:14;12.80;;;8.17;;
8466;SDS011;4270;48.148;11.648;2024-01-07T02:39:39;13.07;;;9.07;;
8466;SDS011;4270;48.148;11.648;2024-01-07T02:42:05;10.37;;;7.13;;
8466;SDS011;4270;48.148;11.648;2024-01-07T02:44:30;12.90;;;8.57;;
8466;SDS011;4270;48.148;11.648;2024-01-07T02:46:55;11.80;;;8.13;;
8466;SDS011;4270;48.148;11.648;2024-01-07T02:49:20;12.73;;;8.03;;
8466;SDS011;4270;48.148;11.648;2024-01-07T02:51:46;13.97;;;8.00;;
8466;SDS011;4270;48.148;11.648;2024-01-07T02:54:14;12.50;;;7.87;;
8466;SDS011;4270;48.148;11.648;2024-01-07T02:56:39;13.60;;;8.13;;
8466;SDS011;4270;48.148;11.648;2024-01-07T02:59:04;13.77;;;8.70;;
8466;SDS011;4270;48.148;11.648;2024-01-07T03:01:30;13.30;;;8.47;;
8466;SDS011;4270;48.148;11.648;2024-01-07T03:03:55;12.93;;;8.73;;
8466;SDS011;4270;48.148;11.648;2024-01-07T03:06:20;13.87;;;8.40;;
8466;SDS011;4270;48.148;11.648;2024-01-07T03:08:46;11.53;;;7.80;;
8466;SDS011;4270;48.148;11.648;2024-01-07T03:11:13;12.17;;;7.37;;
8466;SDS011;4270;48.148;11.648;2024-01-07T03:13:39;12.37;;;8.40;;
8466;SDS011;4270;48.148;11.648;2024-01-07T03:16:05;11.53;;;7.53;;
8466;SDS011;4270;48.148;11.648;2024-01-07T03:18:30;11.33;;;7.53;;
8466;SDS011;4270;48.148;11.648;2024-01-07T03:20:55;12.00;;;7.93;;
8466;SDS011;4270;48.148;11.648;2024-01-07T03:23:20;10.70;;;7.47;;
8466;SDS011;4270;48.148;11.648;2024-01-07T03:25:46;11.57;;;7.60;;
8466;SDS011;4270;48.148;11.648;2024-01-07T03:28:11;12.00;;;7.03;;
8466;SDS011;4270;48.148;11.648;2024-01-07T03:30:36;10.10;;;7.53;;
8466;SDS011;4270;48.148;11.648;2024-01-07T03:33:02;9.93;;;6.30;;
8466;SDS011;4270;48.148;11.648;2024-01-07T03:35:27;10.57;;;7.57;;
8466;SDS011;4270;48.148;11.648;2024-01-07T03:37:52;10.67;;;6.67;;
8466;SDS011;4270;48.148;11.648;2024-01-07T03:40:18;11.83;;;7.63;;
8466;SDS011;4270;48.148;11.648;2024-01-07T03:42:43;9.50;;;6.43;;
8466;SDS011;4270;48.148;11.648;2024-01-07T03:45:08;14.10;;;8.40;;
8466;SDS011;4270;48.148;11.648;2024-01-07T03:47:33;10.93;;;6.93;;
8466;SDS011;4270;48.148;11.648;2024-01-07T03:49:59;12.73;;;7.10;;
8466;SDS011;4270;48.148;11.648;2024-01-07T03:52:24;9.67;;;6.40;;
8466;SDS011;4270;48.148;11.648;2024-01-07T03:54:49;11.53;;;7.23;;
8466;SDS011;4270;48.148;11.648;2024-01-07T03:57:14;10.50;;;7.10;;
8466;SDS011;4270;48.148;11.648;2024-01-07T03:59:40;11.20;;;7.20;;
8466;SDS011;4270;48.148;11.648;2024-01-07T04:02:06;10.70;;;7.40;;
8466;SDS011;4270;48.148;11.648;2024-01-07T04:04:31;10.00;;;6.40;;
8466;SDS011;4270;48.148;11.648;2024-01-07T04:06:56;8.97;;;6.37;;
8466;SDS011;4270;48.148;11.648;2024-01-07T04:09:21;11.10;;;6.93;;
8466;SDS011;4270;48.148;11.648;2024-01-07T04:11:47;9.40;;;6.60;;
8466;SDS011;4270;48.148;11.648;2024-01-07T04:14:13;9.80;;;6.77;;
8466;SDS011;4270;48.148;11.648;2024-01-07T04:16:38;11.57;;;7.07;;
8466;SDS011;4270;48.148;11.648;2024-01-07T04:19:04;11.23;;;7.30;;
8466;SDS011;4270;48.148;11.648;2024-01-07T04:21:29;10.60;;;7.70;;
8466;SDS011;4270;48.148;11.648;2024-01-07T04:23:54;11.37;;;7.40;;
8466;SDS011;4270;48.148;11.648;2024-01-07T04:26:20;12.17;;;7.80;;
8466;SDS011;4270;48.148;11.648;2024-01-07T04:28:45;10.30;;;7.10;;
8466;SDS011;4270;48.148;11.648;2024-01-07T04:31:10;10.20;;;6.80;;
8466;SDS011;4270;48.148;11.648;2024-01-07T04:33:36;12.10;;;7.53;;
8466;SDS011;4270;48.148;11.648;2024-01-07T04:36:01;12.17;;;7.70;;
8466;SDS011;4270;48.148;11.648;2024-01-07T04:38:27;10.63;;;6.70;;
8466;SDS011;4270;48.148;11.648;2024-01-07T04:40:52;10.63;;;7.30;;
8466;SDS011;4270;48.148;11.648;2024-01-07T04:43:18;9.70;;;6.73;;
8466;SDS011;4270;48.148;11.648;2024-01-07T04:45:43;11.03;;;7.33;;
8466;SDS011;4270;48.148;11.648;2024-01-07T04:48:08;11.50;;;7.80;;
8466;SDS011;4270;48.148;11.648;2024-01-07T04:50:33;11.37;;;6.97;;
8466;SDS011;4270;48.148;11.648;2024-01-07T04:52:59;11.70;;;7.77;;
8466;SDS011;4270;48.148;11.648;2024-01-07T04:55:24;12.43;;;7.47;;
8466;SDS011;4270;48.148;11.648;2024-01-07T04:57:49;11.90;;;6.93;;
8466;SDS011;4270;48.148;11.648;2024-01-07T05:00:14;11.10;;;6.83;;
8466;SDS011;4270;48.148;11.648;2024-01-07T05:02:40;11.33;;;7.30;;
8466;SDS011;4270;48.148;11.648;2024-01-07T05:05:07;12.67;;;7.83;;
8466;SDS011;4270;48.148;11.648;2024-01-07T05:07:32;11.40;;;6.80;;
8466;SDS011;4270;48.148;11.648;2024-01-07T05:09:57;9.07;;;6.50;;
8466;SDS011;4270;48.148;11.648;2024-01-07T05:12:23;11.80;;;7.47;;
8466;SDS011;4270;48.148;11.648;2024-01-07T05:14:50;11.97;;;6.23;;
8466;SDS011;4270;48.148;11.648;2024-01-07T05:17:16;12.20;;;6.97;;
8466;SDS011;4270;48.148;11.648;2024-01-07T05:19:41;12.03;;;7.53;;
8466;SDS011;4270;48.148;11.648;2024-01-07T05:22:07;12.20;;;7.67;;
8466;SDS011;4270;48.148;11.648;2024-01-07T05:24:32;11.27;;;7.73;;
8466;SDS011;4270;48.148;11.648;2024-01-07T05:26:57;11.83;;;7.40;;
8466;SDS011;4270;48.148;11.648;2024-01-07T05:29:22;13.00;;;8.60;;
8466;SDS011;4270;48.148;11.648;2024-01-07T05:31:48;12.30;;;8.37;;
8466;SDS011;4270;48.148;11.648;2024-01-07T05:34:13;12.90;;;8.20;;
8466;SDS011;4270;48.148;11.648;2024-01-07T05:36:38;10.50;;;6.57;;
8466;SDS011;4270;48.148;11.648;2024-01-07T05:39:03;11.53;;;7.50;;
8466;SDS011;4270;48.148;11.648;2024-01-07T05:41:29;10.70;;;7.13;;
8466;SDS011;4270;48.148;11.648;2024-01-07T05:43:54;13.57;;;8.93;;
8466;SDS011;4270;48.148;11.648;2024-01-07T05:46:20;12.50;;;7.67;;
8466;SDS011;4270;48.148;11.648;2024-01-07T05:48:45;12.10;;;7.47;;
8466;SDS011;4270;48.148;11.648;2024-01-07T05:51:11;12.50;;;8.27;;
8466;SDS011;4270;48.148;11.648;2024-01-07T05:53:36;10.63;;;6.73;;
8466;SDS011;4270;48.148;11.648;2024-01-07T05:56:01;11.67;;;7.53;;
8466;SDS011;4270;48.148;11.648;2024-01-07T05:58:28;9.97;;;7.03;;
8466;SDS011;4270;48.148;11.648;2024-01-07T06:00:53;11.93;;;7.83;;
8466;SDS011;4270;48.148;11.648;2024-01-07T06:03:18;12.40;;;7.83;;
8466;SDS011;4270;48.148;11.648;2024-01-07T06:05:44;11.73;;;6.33;;
8466;SDS011;4270;48.148;11.648;2024-01-07T06:08:09;11.80;;;7.23;;
8466;SDS011;4270;48.148;11.648;2024-01-07T06:10:35;10.63;;;7.37;;
8466;SDS011;4270;48.148;11.648;2024-01-07T06:13:00;9.23;;;6.50;;
8466;SDS011;4270;48.148;11.648;2024-01-07T06:15:26;8.70;;;5.80;;
8466;SDS011;4270;48.148;11.648;2024-01-07T06:17:51;12.20;;;7.73;;
8466;SDS011;4270;48.148;11.648;2024-01-07T06:20:17;10.90;;;6.93;;
8466;SDS011;4270;48.148;11.648;2024-01-07T06:22:42;11.90;;;7.50;;
8466;SDS011;4270;48.148;11.648;2024-01-07T06:25:07;13.17;;;7.63;;
8466;SDS011;4270;48.148;11.648;2024-01-07T06:27:33;10.90;;;7.20;;
8466;SDS011;4270;48.148;11.648;2024-01-07T06:29:58;12.37;;;7.30;;
8466;SDS011;4270;48.148;11.648;2024-01-07T06:32:23;12.37;;;6.93;;
8466;SDS011;4270;48.148;11.648;2024-01-07T06:34:50;11.63;;;7.60;;
8466;SDS011;4270;48.148;11.648;2024-01-07T06:37:15;10.83;;;6.90;;
8466;SDS011;4270;48.148;11.648;2024-01-07T06:39:40;13.07;;;7.70;;
8466;SDS011;4270;48.148;11.648;2024-01-07T06:42:06;12.10;;;7.60;;
8466;SDS011;4270;48.148;11.648;2024-01-07T06:44:31;12.40;;;7.77;;
8466;SDS011;4270;48.148;11.648;2024-01-07T06:46:56;10.73;;;7.00;;
8466;SDS011;4270;48.148;11.648;2024-01-07T06:49:21;10.37;;;7.30;;
8466;SDS011;4270;48.148;11.648;2024-01-07T06:51:47;8.97;;;6.23;;
8466;SDS011;4270;48.148;11.648;2024-01-07T06:54:12;12.10;;;7.03;;
8466;SDS011;4270;48.148;11.648;2024-01-07T06:56:37;10.73;;;6.93;;
8466;SDS011;4270;48.148;11.648;2024-01-07T06:59:02;11.27;;;6.63;;
8466;SDS011;4270;48.148;11.648;2024-01-07T07:01:28;11.60;;;7.90;;
8466;SDS011;4270;48.148;11.648;2024-01-07T07:03:53;11.80;;;7.90;;
8466;SDS011;4270;48.148;11.648;2024-01-07T07:06:18;9.60;;;6.50;;
8466;SDS011;4270;48.148;11.648;2024-01-07T07:08:43;18.83;;;7.40;;
8466;SDS011;4270;48.148;11.648;2024-01-07T07:11:08;10.07;;;6.23;;
8466;SDS011;4270;48.148;11.648;2024-01-07T07:13:34;11.53;;;6.90;;
8466;SDS011;4270;48.148;11.648;2024-01-07T07:15:59;11.77;;;7.17;;
8466;SDS011;4270;48.148;11.648;2024-01-07T07:18:24;10.03;;;6.97;;
8466;SDS011;4270;48.148;11.648;2024-01-07T07:20:50;9.60;;;6.07;;
8466;SDS011;4270;48.148;11.648;2024-01-07T07:23:15;13.10;;;6.67;;
8466;SDS011;4270;48.148;11.648;2024-01-07T07:25:40;9.67;;;6.37;;
8466;SDS011;4270;48.148;11.648;2024-01-07T07:28:05;10.27;;;6.80;;
8466;SDS011;4270;48.148;11.648;2024-01-07T07:30:31;9.20;;;6.70;;
8466;SDS011;4270;48.148;11.648;2024-01-07T07:32:56;12.00;;;7.20;;
8466;SDS011;4270;48.148;11.648;2024-01-07T07:35:21;10.83;;;6.50;;
8466;SDS011;4270;48.148;11.648;2024-01-07T07:37:47;10.67;;;6.70;;
8466;SDS011;4270;48.148;11.648;2024-01-07T07:40:12;11.30;;;6.93;;
8466;SDS011;4270;48.148;11.648;2024-01-07T07:42:38;9.43;;;5.90;;
8466;SDS011;4270;48.148;11.648;2024-01-07T07:45:03;10.67;;;6.53;;
8466;SDS011;4270;48.148;11.648;2024-01-07T07:47:28;10.20;;;6.03;;
8466;SDS011;4270;48.148;11.648;2024-01-07T07:49:54;10.30;;;6.30;;
8466;SDS011;4270;48.148;11.648;2024-01-07T07:52:19;10.80;;;6.67;;
8466;SDS011;4270;48.148;11.648;2024-01-07T07:54:48;11.53;;;6.10;;
8466;SDS011;4270;48.148;11.648;2024-01-07T07:57:14;11.50;;;6.13;;
8466;SDS011;4270;48.148;11.648;2024-01-07T07:59:39;9.10;;;5.57;;
8466;SDS011;4270;48.148;11.648;2024-01-07T08:02:04;11.73;;;6.30;;
8466;SDS011;4270;48.148;11.648;2024-01-07T08:04:30;11.47;;;6.13;;
8466;SDS011;4270;48.148;11.648;2024-01-07T08:06:55;11.50;;;7.20;;
8466;SDS011;4270;48.148;11.648;2024-01-07T08:09:21;12.33;;;7.00;;
8466;SDS011;4270;48.148;11.648;2024-01-07T08:11:46;11.13;;;7.17;;
8466;SDS011;4270;48.148;11.648;2024-01-07T08:14:12;11.80;;;6.80;;
8466;SDS011;4270;48.148;11.648;2024-01-07T08:16:37;12.43;;;6.80;;
8466;SDS011;4270;48.148;11.648;2024-01-07T08:19:02;10.40;;;6.70;;
8466;SDS011;4270;48.148;11.648;2024-01-07T08:21:28;12.77;;;7.23;;
8466;SDS011;4270;48.148;11.648;2024-01-07T08:23:53;8.63;;;5.83;;
8466;SDS011;4270;48.148;11.648;2024-01-07T08:26:19;13.37;;;7.57;;
8466;SDS011;4270;48.148;11.648;2024-01-07T08:28:44;11.90;;;6.27;;
8466;SDS011;4270;48.148;11.648;2024-01-07T08:31:09;11.07;;;6.40;;
8466;SDS011;4270;48.148;11.648;2024-01-07T08:33:35;12.17;;;6.90;;
8466;SDS011;4270;48.148;11.648;2024-01-07T08:36:00;10.63;;;6.90;;
8466;SDS011;4270;48.148;11.648;2024-01-07T08:38:25;11.80;;;7.03;;
8466;SDS011;4270;48.148;11.648;2024-01-07T08:40:51;11.87;;;7.23;;
8466;SDS011;4270;48.148;11.648;2024-01-07T08:43:16;11.43;;;5.90;;
8466;SDS011;4270;48.148;11.648;2024-01-07T08:45:41;12.00;;;7.37;;
8466;SDS011;4270;48.148;11.648;2024-01-07T08:48:07;10.70;;;6.50;;
8466;SDS011;4270;48.148;11.648;2024-01-07T08:50:32;11.40;;;6.87;;
8466;SDS011;4270;48.148;11.648;2024-01-07T08:52:57;12.00;;;7.60;;
8466;SDS011;4270;48.148;11.648;2024-01-07T08:55:23;9.53;;;5.80;;
8466;SDS011;4270;48.148;11.648;2024-01-07T08:57:48;11.70;;;6.70;;
8466;SDS011;4270;48.148;11.648;2024-01-07T09:00:14;12.90;;;5.90;;
8466;SDS011;4270;48.148;11.648;2024-01-07T09:02:39;14.17;;;7.50;;
8466;SDS011;4270;48.148;11.648;2024-01-07T09:05:05;10.80;;;6.60;;
8466;SDS011;4270;48.148;11.648;2024-01-07T09:07:30;12.30;;;6.97;;
8466;SDS011;4270;48.148;11.648;2024-01-07T09:09:57;9.87;;;6.30;;
8466;SDS011;4270;48.148;11.648;2024-01-07T09:12:24;11.73;;;6.87;;
8466;SDS011;4270;48.148;11.648;2024-01-07T09:14:49;12.30;;;6.90;;
8466;SDS011;4270;48.148;11.648;2024-01-07T09:17:15;13.33;;;7.97;;
8466;SDS011;4270;48.148;11.648;2024-01-07T09:19:42;12.93;;;7.60;;
8466;SDS011;4270;48.148;11.648;2024-01-07T09:22:07;13.17;;;7.60;;
8466;SDS011;4270;48.148;11.648;2024-01-07T09:24:32;12.37;;;7.17;;
8466;SDS011;4270;48.148;11.648;2024-01-07T09:26:58;10.60;;;6.30;;
8466;SDS011;4270;48.148;11.648;2024-01-07T09:29:23;13.80;;;7.50;;
8466;SDS011;4270;48.148;11.648;2024-01-07T09:31:48;13.80;;;7.67;;
8466;SDS011;4270;48.148;11.648;2024-01-07T09:34:13;14.10;;;8.53;;
8466;SDS011;4270;48.148;11.648;2024-01-07T09:36:39;17.57;;;8.23;;
8466;SDS011;4270;48.148;11.648;2024-01-07T09:39:05;11.00;;;7.10;;
8466;SDS011;4270;48.148;11.648;2024-01-07T09:41:31;11.90;;;6.90;;
8466;SDS011;4270;48.148;11.648;2024-01-07T09:43:57;13.23;;;7.70;;
8466;SDS011;4270;48.148;11.648;2024-01-07T09:46:23;13.10;;;8.00;;
8466;SDS011;4270;48.148;11.648;2024-01-07T09:48:49;12.90;;;7.43;;
8466;SDS011;4270;48.148;11.648;2024-01-07T09:51:14;13.00;;;7.70;;
8466;SDS011;4270;48.148;11.648;2024-01-07T09:53:40;12.20;;;7.13;;
8466;SDS011;4270;48.148;11.648;2024-01-07T09:58:42;15.90;;;8.30;;
8466;SDS011;4270;48.148;11.648;2024-01-07T10:01:07;13.63;;;7.83;;
8466;SDS011;4270;48.148;11.648;2024-01-07T10:03:33;13.43;;;7.80;;
8466;SDS011;4270;48.148;11.648;2024-01-07T10:05:58;13.27;;;8.00;;
8466;SDS011;4270;48.148;11.648;2024-01-07T10:08:23;11.47;;;7.10;;
8466;SDS011;4270;48.148;11.648;2024-01-07T10:10:48;13.47;;;7.53;;
8466;SDS011;4270;48.148;11.648;2024-01-07T10:13:14;17.77;;;7.60;;
8466;SDS011;4270;48.148;11.648;2024-01-07T10:15:39;12.67;;;6.70;;
8466;SDS011;4270;48.148;11.648;2024-01-07T10:18:04;17.67;;;8.87;;
8466;SDS011;4270;48.148;11.648;2024-01-07T10:20:34;13.67;;;8.37;;
8466;SDS011;4270;48.148;11.648;2024-01-07T10:22:59;12.60;;;7.70;;
8466;SDS011;4270;48.148;11.648;2024-01-07T10:25:25;15.07;;;8.20;;
8466;SDS011;4270;48.148;11.648;2024-01-07T10:27:50;13.80;;;7.50;;
8466;SDS011;4270;48.148;11.648;2024-01-07T10:30:15;14.70;;;7.70;;
8466;SDS011;4270;48.148;11.648;2024-01-07T10:32:41;15.70;;;8.30;;
8466;SDS011;4270;48.148;11.648;2024-01-07T10:35:06;9.50;;;6.53;;
8466;SDS011;4270;48.148;11.648;2024-01-07T10:37:33;14.83;;;7.23;;
8466;SDS011;4270;48.148;11.648;2024-01-07T10:39:58;13.40;;;7.50;;
8466;SDS011;4270;48.148;11.648;2024-01-07T10:42:30;11.87;;;7.10;;
8466;SDS011;4270;48.148;11.648;2024-01-07T10:44:55;13.27;;;7.53;;
8466;SDS011;4270;48.148;11.648;2024-01-07T10:47:21;11.30;;;6.93;;
8466;SDS011;4270;48.148;11.648;2024-01-07T10:49:47;11.33;;;6.70;;
8466;SDS011;4270;48.148;11.648;2024-01-07T10:52:15;11.40;;;7.57;;
8466;SDS011;4270;48.148;11.648;2024-01-07T10:54:41;12.13;;;7.83;;
8466;SDS011;4270;48.148;11.648;2024-01-07T10:59:45;15.03;;;8.37;;
8466;SDS011;4270;48.148;11.648;2024-01-07T11:02:10;14.60;;;7.77;;
8466;SDS011;4270;48.148;11.648;2024-01-07T11:07:51;12.33;;;7.50;;
8466;SDS011;4270;48.148;11.648;2024-01-07T11:12:32;11.83;;;7.47;;
8466;SDS011;4270;48.148;11.648;2024-01-07T11:14:58;12.30;;;6.60;;
8466;SDS011;4270;48.148;11.648;2024-01-07T11:20:02;13.57;;;7.83;;
8466;SDS011;4270;48.148;11.648;2024-01-07T11:22:27;12.60;;;6.60;;
8466;SDS011;4270;48.148;11.648;2024-01-07T11:24:53;10.83;;;7.13;;
8466;SDS011;4270;48.148;11.648;2024-01-07T11:27:18;10.37;;;7.10;;
8466;SDS011;4270;48.148;11.648;2024-01-07T11:29:52;12.40;;;7.00;;
8466;SDS011;4270;48.148;11.648;2024-01-07T11:32:17;12.70;;;7.07;;
8466;SDS011;4270;48.148;11.648;2024-01-07T11:34:43;14.77;;;8.83;;
8466;SDS011;4270;48.148;11.648;2024-01-07T11:37:11;10.40;;;5.77;;
8466;SDS011;4270;48.148;11.648;2024-01-07T11:39:37;11.57;;;6.87;;
8466;SDS011;4270;48.148;11.648;2024-01-07T11:42:05;9.90;;;6.43;;
8466;SDS011;4270;48.148;11.648;2024-01-07T11:44:33;9.37;;;6.60;;
8466;SDS011;4270;48.148;11.648;2024-01-07T11:46:59;11.10;;;7.50;;
8466;SDS011;4270;48.148;11.648;2024-01-07T11:49:24;11.67;;;7.17;;
8466;SDS011;4270;48.148;11.648;2024-01-07T11:51:49;10.60;;;6.17;;
8466;SDS011;4270;48.148;11.648;2024-01-07T11:54:14;12.23;;;6.50;;
8466;SDS011;4270;48.148;11.648;2024-01-07T11:56:40;10.40;;;6.50;;
8466;SDS011;4270;48.148;11.648;2024-01-07T11:59:05;10.63;;;6.97;;
8466;SDS011;4270;48.148;11.648;2024-01-07T12:01:31;10.73;;;6.83;;
8466;SDS011;4270;48.148;11.648;2024-01-07T12:03:56;11.83;;;7.00;;
8466;SDS011;4270;48.148;11.648;2024-01-07T12:06:22;11.33;;;7.33;;
8466;SDS011;4270;48.148;11.648;2024-01-07T12:08:47;10.90;;;6.33;;
8466;SDS011;4270;48.148;11.648;2024-01-07T12:11:13;13.30;;;7.17;;
8466;SDS011;4270;48.148;11.648;2024-01-07T12:13:38;11.30;;;7.50;;
8466;SDS011;4270;48.148;11.648;2024-01-07T12:16:07;11.27;;;6.93;;
8466;SDS011;4270;48.148;11.648;2024-01-07T12:18:32;13.77;;;8.10;;
8466;SDS011;4270;48.148;11.648;2024-01-07T12:20:58;12.20;;;7.53;;
8466;SDS011;4270;48.148;11.648;2024-01-07T12:23:24;11.77;;;7.20;;
8466;SDS011;4270;48.148;11.648;2024-01-07T12:25:50;9.30;;;6.67;;
8466;SDS011;4270;48.148;11.648;2024-01-07T12:28:16;13.83;;;8.30;;
8466;SDS011;4270;48.148;11.648;2024-01-07T12:30:42;12.17;;;7.60;;
8466;SDS011;4270;48.148;11.648;2024-01-07T12:33:07;12.53;;;7.23;;
8466;SDS011;4270;48.148;11.648;2024-01-07T12:35:33;11.57;;;7.43;;
8466;SDS011;4270;48.148;11.648;2024-01-07T12:37:59;12.00;;;6.67;;
8466;SDS011;4270;48.148;11.648;2024-01-07T12:40:24;12.87;;;8.43;;
8466;SDS011;4270;48.148;11.648;2024-01-07T12:42:52;10.50;;;6.70;;
8466;SDS011;4270;48.148;11.648;2024-01-07T12:45:17;10.77;;;7.00;;
8466;SDS011;4270;48.148;11.648;2024-01-07T12:47:42;9.50;;;6.17;;
8466;SDS011;4270;48.148;11.648;2024-01-07T12:50:11;11.97;;;7.60;;
8466;SDS011;4270;48.148;11.648;2024-01-07T12:52:36;10.50;;;7.03;;
8466;SDS011;4270;48.148;11.648;2024-01-07T12:55:03;12.57;;;8.23;;
8466;SDS011;4270;48.148;11.648;2024-01-07T12:57:28;11.87;;;6.93;;
8466;SDS011;4270;48.148;11.648;2024-01-07T12:59:54;11.50;;;7.10;;
8466;SDS011;4270;48.148;11.648;2024-01-07T13:02:21;13.60;;;7.40;;
8466;SDS011;4270;48.148;11.648;2024-01-07T13:04:46;13.20;;;7.93;;
8466;SDS011;4270;48.148;11.648;2024-01-07T13:07:12;13.40;;;7.60;;
8466;SDS011;4270;48.148;11.648;2024-01-07T13:09:37;11.70;;;7.13;;
8466;SDS011;4270;48.148;11.648;2024-01-07T13:12:02;11.90;;;7.17;;
8466;SDS011;4270;48.148;11.648;2024-01-07T13:14:29;9.90;;;6.87;;
8466;SDS011;4270;48.148;11.648;2024-01-07T13:16:54;13.40;;;7.40;;
8466;SDS011;4270;48.148;11.648;2024-01-07T13:19:19;11.63;;;6.93;;
8466;SDS011;4270;48.148;11.648;2024-01-07T13:21:45;11.33;;;7.37;;
8466;SDS011;4270;48.148;11.648;2024-01-07T13:24:11;9.07;;;5.97;;
8466;SDS011;4270;48.148;11.648;2024-01-07T13:26:36;11.87;;;6.87;;
8466;SDS011;4270;48.148;11.648;2024-01-07T13:29:01;13.30;;;8.10;;
8466;SDS011;4270;48.148;11.648;2024-01-07T13:31:28;13.23;;;7.43;;
8466;SDS011;4270;48.148;11.648;2024-01-07T13:33:53;10.93;;;7.27;;
8466;SDS011;4270;48.148;11.648;2024-01-07T13:36:18;11.37;;;6.63;;
8466;SDS011;4270;48.148;11.648;2024-01-07T13:38:44;13.53;;;7.33;;
8466;SDS011;4270;48.148;11.648;2024-01-07T13:41:09;11.57;;;6.83;;
8466;SDS011;4270;48.148;11.648;2024-01-07T13:43:34;10.87;;;7.03;;
8466;SDS011;4270;48.148;11.648;2024-01-07T13:45:59;11.17;;;6.57;;
8466;SDS011;4270;48.148;11.648;2024-01-07T13:48:27;12.50;;;7.70;;
8466;SDS011;4270;48.148;11.648;2024-01-07T13:50:52;10.47;;;6.30;;
8466;SDS011;4270;48.148;11.648;2024-01-07T13:53:19;11.47;;;7.40;;
8466;SDS011;4270;48.148;11.648;2024-01-07T13:55:44;11.57;;;6.20;;
8466;SDS011;4270;48.148;11.648;2024-01-07T13:58:11;10.23;;;6.60;;
8466;SDS011;4270;48.148;11.648;2024-01-07T14:00:36;9.43;;;6.20;;
8466;SDS011;4270;48.148;11.648;2024-01-07T14:03:02;9.50;;;6.73;;
8466;SDS011;4270;48.148;11.648;2024-01-07T14:05:27;10.27;;;6.40;;
8466;SDS011;4270;48.148;11.648;2024-01-07T14:07:52;8.50;;;6.60;;
8466;SDS011;4270;48.148;11.648;2024-01-07T14:10:17;10.70;;;6.87;;
8466;SDS011;4270;48.148;11.648;2024-01-07T14:12:44;12.13;;;7.50;;
8466;SDS011;4270;48.148;11.648;2024-01-07T14:15:09;11.00;;;7.37;;
8466;SDS011;4270;48.148;11.648;2024-01-07T14:17:35;13.37;;;8.00;;
8466;SDS011;4270;48.148;11.648;2024-01-07T14:20:00;12.07;;;7.30;;
8466;SDS011;4270;48.148;11.648;2024-01-07T14:22:25;12.40;;;7.20;;
8466;SDS011;4270;48.148;11.648;2024-01-07T14:24:51;10.53;;;7.27;;
8466;SDS011;4270;48.148;11.648;2024-01-07T14:27:16;10.87;;;7.17;;
8466;SDS011;4270;48.148;11.648;2024-01-07T14:29:42;12.43;;;8.17;;
8466;SDS011;4270;48.148;11.648;2024-01-07T14:32:07;10.90;;;7.53;;
8466;SDS011;4270;48.148;11.648;2024-01-07T14:34:32;12.87;;;7.57;;
8466;SDS011;4270;48.148;11.648;2024-01-07T14:36:57;12.40;;;7.30;;
8466;SDS011;4270;48.148;11.648;2024-01-07T14:39:22;12.47;;;8.40;;
8466;SDS011;4270;48.148;11.648;2024-01-07T14:41:48;10.67;;;7.13;;
8466;SDS011;4270;48.148;11.648;2024-01-07T14:44:13;12.47;;;7.90;;
8466;SDS011;4270;48.148;11.648;2024-01-07T14:46:38;9.47;;;6.77;;
8466;SDS011;4270;48.148;11.648;2024-01-07T14:49:03;12.40;;;8.10;;
8466;SDS011;4270;48.148;11.648;2024-01-07T14:51:32;13.60;;;7.33;;